Ithaca, New York
Current Conditions -  °F | °C
As of 3:56 PM on Thursday 23 Oct 2014 (Local Time) from KITH Reporting Station
Overcast Overcast  
Wind Chill:   Ceiling: 1900
Heat Index:   Visibility: 10mi
Dew Point:   Wind: 12mph
Humidity: 80%   Direction: 330°NNW
Pressure: 29.94"   Gusts: 22mph
Location:  42.44°N, 76.49°W
Report Text: KITH 231956Z 33010G19KT 10SM OVC019 09/06 A2994 RMK AO2 T00940061 SLP143
Loading
Personal Weather Stations






























Interactive Weather Map
Tropical Storm Tracking
New forecast layout! Learn more

10-Day Weather Forecast

Advertisements
Track Severe Weather on mobile